sensor_id;sensor_type;location;lat;lon;timestamp;pressure;altitude;pressure_sealevel;temperature;humidity
64192;BME280;50497;50.720;-2.084;2024-02-26T00:01:56;98775.69;;;5.35;100.00
64192;BME280;50497;50.720;-2.084;2024-02-26T00:04:21;98799.66;;;5.34;100.00
64192;BME280;50497;50.720;-2.084;2024-02-26T00:06:47;98814.03;;;5.30;100.00
64192;BME280;50497;50.720;-2.084;2024-02-26T00:09:15;98823.50;;;5.34;100.00
64192;BME280;50497;50.720;-2.084;2024-02-26T00:11:41;98842.06;;;5.34;100.00
64192;BME280;50497;50.720;-2.084;2024-02-26T00:14:06;98836.59;;;5.37;100.00
64192;BME280;50497;50.720;-2.084;2024-02-26T00:16:32;98840.47;;;5.31;100.00
64192;BME280;50497;50.720;-2.084;2024-02-26T00:18:58;98846.34;;;5.36;100.00
64192;BME280;50497;50.720;-2.084;2024-02-26T00:21:23;98857.97;;;5.34;100.00
64192;BME280;50497;50.720;-2.084;2024-02-26T00:23:49;98853.72;;;5.31;100.00
64192;BME280;50497;50.720;-2.084;2024-02-26T00:26:18;98873.91;;;5.34;100.00
64192;BME280;50497;50.720;-2.084;2024-02-26T00:28:43;98896.75;;;5.36;100.00
64192;BME280;50497;50.720;-2.084;2024-02-26T00:31:09;98906.22;;;5.41;100.00
64192;BME280;50497;50.720;-2.084;2024-02-26T00:33:34;98884.00;;;5.43;100.00
64192;BME280;50497;50.720;-2.084;2024-02-26T00:36:00;98900.06;;;5.40;100.00
64192;BME280;50497;50.720;-2.084;2024-02-26T00:38:25;98894.94;;;5.37;100.00
64192;BME280;50497;50.720;-2.084;2024-02-26T00:40:50;98906.31;;;5.39;100.00
64192;BME280;50497;50.720;-2.084;2024-02-26T00:43:16;98907.19;;;5.40;100.00
64192;BME280;50497;50.720;-2.084;2024-02-26T00:45:41;98911.63;;;5.39;100.00
64192;BME280;50497;50.720;-2.084;2024-02-26T00:48:07;98923.19;;;5.38;100.00
64192;BME280;50497;50.720;-2.084;2024-02-26T00:50:34;98941.81;;;5.36;100.00
64192;BME280;50497;50.720;-2.084;2024-02-26T00:53:00;98938.38;;;5.34;100.00
64192;BME280;50497;50.720;-2.084;2024-02-26T00:55:25;98943.81;;;5.33;100.00
64192;BME280;50497;50.720;-2.084;2024-02-26T00:57:51;98965.09;;;5.31;100.00
64192;BME280;50497;50.720;-2.084;2024-02-26T01:00:16;98979.28;;;5.30;100.00
64192;BME280;50497;50.720;-2.084;2024-02-26T01:02:42;98979.28;;;5.30;100.00
64192;BME280;50497;50.720;-2.084;2024-02-26T01:05:08;98993.81;;;5.23;100.00
64192;BME280;50497;50.720;-2.084;2024-02-26T01:07:36;99013.38;;;5.21;100.00
64192;BME280;50497;50.720;-2.084;2024-02-26T01:10:02;99025.78;;;5.20;100.00
64192;BME280;50497;50.720;-2.084;2024-02-26T01:12:28;99042.47;;;5.22;100.00
64192;BME280;50497;50.720;-2.084;2024-02-26T01:14:53;99051.69;;;5.15;100.00
64192;BME280;50497;50.720;-2.084;2024-02-26T01:17:19;99058.75;;;5.14;100.00
64192;BME280;50497;50.720;-2.084;2024-02-26T01:19:44;99073.66;;;5.17;100.00
64192;BME280;50497;50.720;-2.084;2024-02-26T01:22:09;99077.31;;;5.14;100.00
64192;BME280;50497;50.720;-2.084;2024-02-26T01:24:35;99087.78;;;5.17;100.00
64192;BME280;50497;50.720;-2.084;2024-02-26T01:27:00;99082.41;;;5.19;100.00
64192;BME280;50497;50.720;-2.084;2024-02-26T01:29:26;99118.75;;;5.17;100.00
64192;BME280;50497;50.720;-2.084;2024-02-26T01:31:51;99121.53;;;5.14;100.00
64192;BME280;50497;50.720;-2.084;2024-02-26T01:34:16;99128.56;;;5.15;100.00
64192;BME280;50497;50.720;-2.084;2024-02-26T01:36:43;99138.38;;;5.13;100.00
64192;BME280;50497;50.720;-2.084;2024-02-26T01:39:09;99153.34;;;5.14;100.00
64192;BME280;50497;50.720;-2.084;2024-02-26T01:41:38;99163.34;;;5.09;100.00
64192;BME280;50497;50.720;-2.084;2024-02-26T01:44:03;99183.69;;;5.08;100.00
64192;BME280;50497;50.720;-2.084;2024-02-26T01:46:29;99197.03;;;5.07;100.00
64192;BME280;50497;50.720;-2.084;2024-02-26T01:48:56;99201.69;;;5.02;100.00
64192;BME280;50497;50.720;-2.084;2024-02-26T01:51:22;99214.94;;;5.02;100.00
64192;BME280;50497;50.720;-2.084;2024-02-26T01:53:48;99240.38;;;5.06;100.00
64192;BME280;50497;50.720;-2.084;2024-02-26T01:56:15;99244.81;;;5.05;100.00
64192;BME280;50497;50.720;-2.084;2024-02-26T01:58:43;99262.41;;;5.06;100.00
64192;BME280;50497;50.720;-2.084;2024-02-26T02:01:09;99262.41;;;5.06;100.00
64192;BME280;50497;50.720;-2.084;2024-02-26T02:03:35;99281.03;;;5.05;100.00
64192;BME280;50497;50.720;-2.084;2024-02-26T02:06:02;99308.66;;;5.00;100.00
64192;BME280;50497;50.720;-2.084;2024-02-26T02:08:27;99294.16;;;5.08;100.00
64192;BME280;50497;50.720;-2.084;2024-02-26T02:10:53;99323.31;;;5.08;100.00
64192;BME280;50497;50.720;-2.084;2024-02-26T02:13:18;99330.50;;;5.06;100.00
64192;BME280;50497;50.720;-2.084;2024-02-26T02:15:44;99359.44;;;5.10;100.00
64192;BME280;50497;50.720;-2.084;2024-02-26T02:18:09;99363.09;;;5.08;100.00
64192;BME280;50497;50.720;-2.084;2024-02-26T02:20:35;99369.03;;;5.13;100.00
64192;BME280;50497;50.720;-2.084;2024-02-26T02:23:01;99386.66;;;5.14;100.00
64192;BME280;50497;50.720;-2.084;2024-02-26T02:25:27;99397.41;;;5.11;100.00
64192;BME280;50497;50.720;-2.084;2024-02-26T02:27:55;99401.94;;;5.09;100.00
64192;BME280;50497;50.720;-2.084;2024-02-26T02:30:24;99416.63;;;5.16;100.00
64192;BME280;50497;50.720;-2.084;2024-02-26T02:32:50;99424.88;;;5.10;100.00
64192;BME280;50497;50.720;-2.084;2024-02-26T02:35:16;99442.34;;;5.14;100.00
64192;BME280;50497;50.720;-2.084;2024-02-26T02:37:41;99448.56;;;5.13;100.00
64192;BME280;50497;50.720;-2.084;2024-02-26T02:40:09;99465.22;;;5.16;100.00
64192;BME280;50497;50.720;-2.084;2024-02-26T02:42:35;99479.41;;;5.15;100.00
64192;BME280;50497;50.720;-2.084;2024-02-26T02:45:00;99489.28;;;5.12;100.00
64192;BME280;50497;50.720;-2.084;2024-02-26T02:47:26;99512.34;;;5.10;100.00
64192;BME280;50497;50.720;-2.084;2024-02-26T02:49:51;99516.66;;;5.12;100.00
64192;BME280;50497;50.720;-2.084;2024-02-26T02:52:17;99519.16;;;5.15;100.00
64192;BME280;50497;50.720;-2.084;2024-02-26T02:54:42;99540.44;;;5.14;100.00
64192;BME280;50497;50.720;-2.084;2024-02-26T02:57:08;99573.34;;;5.10;100.00
64192;BME280;50497;50.720;-2.084;2024-02-26T02:59:34;99576.78;;;5.12;100.00
64192;BME280;50497;50.720;-2.084;2024-02-26T03:02:00;99601.44;;;5.14;100.00
64192;BME280;50497;50.720;-2.084;2024-02-26T03:04:25;99622.56;;;5.15;100.00
64192;BME280;50497;50.720;-2.084;2024-02-26T03:06:51;99631.50;;;5.13;100.00
64192;BME280;50497;50.720;-2.084;2024-02-26T03:09:16;99651.63;;;5.18;100.00
64192;BME280;50497;50.720;-2.084;2024-02-26T03:11:42;99656.91;;;5.18;100.00
64192;BME280;50497;50.720;-2.084;2024-02-26T03:14:07;99658.72;;;5.18;100.00
64192;BME280;50497;50.720;-2.084;2024-02-26T03:16:33;99687.94;;;5.16;100.00
64192;BME280;50497;50.720;-2.084;2024-02-26T03:18:59;99692.25;;;5.19;100.00
64192;BME280;50497;50.720;-2.084;2024-02-26T03:21:25;99709.88;;;5.20;100.00
64192;BME280;50497;50.720;-2.084;2024-02-26T03:23:50;99712.41;;;5.23;100.00
64192;BME280;50497;50.720;-2.084;2024-02-26T03:26:16;99717.84;;;5.20;100.00
64192;BME280;50497;50.720;-2.084;2024-02-26T03:28:42;99735.47;;;5.21;100.00
64192;BME280;50497;50.720;-2.084;2024-02-26T03:31:07;99745.03;;;5.25;100.00
64192;BME280;50497;50.720;-2.084;2024-02-26T03:33:32;99766.25;;;5.25;100.00
64192;BME280;50497;50.720;-2.084;2024-02-26T03:35:58;99784.94;;;5.22;100.00
64192;BME280;50497;50.720;-2.084;2024-02-26T03:38:23;99803.38;;;5.25;100.00
64192;BME280;50497;50.720;-2.084;2024-02-26T03:40:48;99730.97;;;5.23;100.00
64192;BME280;50497;50.720;-2.084;2024-02-26T03:43:14;99772.47;;;5.24;100.00
64192;BME280;50497;50.720;-2.084;2024-02-26T03:45:39;99792.88;;;5.22;100.00
64192;BME280;50497;50.720;-2.084;2024-02-26T03:48:05;99791.84;;;5.26;100.00
64192;BME280;50497;50.720;-2.084;2024-02-26T03:50:31;99794.63;;;5.23;100.00
64192;BME280;50497;50.720;-2.084;2024-02-26T03:52:57;99817.56;;;5.24;100.00
64192;BME280;50497;50.720;-2.084;2024-02-26T03:55:23;99822.19;;;5.19;100.00
64192;BME280;50497;50.720;-2.084;2024-02-26T03:57:51;99827.25;;;5.25;100.00
64192;BME280;50497;50.720;-2.084;2024-02-26T04:00:17;99841.47;;;5.23;100.00
64192;BME280;50497;50.720;-2.084;2024-02-26T04:02:42;99836.94;;;5.26;100.00
64192;BME280;50497;50.720;-2.084;2024-02-26T04:05:11;99849.50;;;5.21;100.00
64192;BME280;50497;50.720;-2.084;2024-02-26T04:07:37;99846.16;;;5.16;100.00
64192;BME280;50497;50.720;-2.084;2024-02-26T04:10:02;99845.19;;;5.18;100.00
64192;BME280;50497;50.720;-2.084;2024-02-26T04:12:31;99844.34;;;5.18;100.00
64192;BME280;50497;50.720;-2.084;2024-02-26T04:14:56;99837.19;;;5.20;100.00
64192;BME280;50497;50.720;-2.084;2024-02-26T04:17:21;99833.47;;;5.24;100.00
64192;BME280;50497;50.720;-2.084;2024-02-26T04:19:47;99820.31;;;5.21;100.00
64192;BME280;50497;50.720;-2.084;2024-02-26T04:22:12;99812.31;;;5.23;100.00
64192;BME280;50497;50.720;-2.084;2024-02-26T04:24:38;99815.16;;;5.18;100.00
64192;BME280;50497;50.720;-2.084;2024-02-26T04:27:03;99784.03;;;5.23;100.00
64192;BME280;50497;50.720;-2.084;2024-02-26T04:29:29;99779.63;;;5.22;100.00
64192;BME280;50497;50.720;-2.084;2024-02-26T04:31:54;99757.56;;;5.22;100.00
64192;BME280;50497;50.720;-2.084;2024-02-26T04:34:19;99730.09;;;5.23;100.00
64192;BME280;50497;50.720;-2.084;2024-02-26T04:36:45;99728.31;;;5.23;100.00
64192;BME280;50497;50.720;-2.084;2024-02-26T04:39:10;99697.53;;;5.19;100.00
64192;BME280;50497;50.720;-2.084;2024-02-26T04:41:36;99661.03;;;5.26;100.00
64192;BME280;50497;50.720;-2.084;2024-02-26T04:44:02;99638.94;;;5.25;100.00
64192;BME280;50497;50.720;-2.084;2024-02-26T04:46:27;99625.69;;;5.25;100.00
64192;BME280;50497;50.720;-2.084;2024-02-26T04:48:53;99600.97;;;5.25;100.00
64192;BME280;50497;50.720;-2.084;2024-02-26T04:51:19;99584.47;;;5.18;100.00
64192;BME280;50497;50.720;-2.084;2024-02-26T04:53:44;99563.09;;;5.21;100.00
64192;BME280;50497;50.720;-2.084;2024-02-26T04:56:10;99545.41;;;5.22;100.00
64192;BME280;50497;50.720;-2.084;2024-02-26T04:58:35;99538.19;;;5.25;100.00
64192;BME280;50497;50.720;-2.084;2024-02-26T05:01:01;99549.91;;;5.19;100.00
64192;BME280;50497;50.720;-2.084;2024-02-26T05:03:26;99532.09;;;5.23;100.00
64192;BME280;50497;50.720;-2.084;2024-02-26T05:05:52;99543.56;;;5.24;100.00
64192;BME280;50497;50.720;-2.084;2024-02-26T05:08:17;99532.16;;;5.22;100.00
64192;BME280;50497;50.720;-2.084;2024-02-26T05:10:45;99551.69;;;5.19;100.00
64192;BME280;50497;50.720;-2.084;2024-02-26T05:13:11;99542.75;;;5.22;100.00
64192;BME280;50497;50.720;-2.084;2024-02-26T05:15:36;99539.28;;;5.19;100.00
64192;BME280;50497;50.720;-2.084;2024-02-26T05:18:02;99537.53;;;5.20;100.00
64192;BME280;50497;50.720;-2.084;2024-02-26T05:20:28;99539.91;;;5.26;100.00
64192;BME280;50497;50.720;-2.084;2024-02-26T05:22:54;99550.78;;;5.20;100.00
64192;BME280;50497;50.720;-2.084;2024-02-26T05:25:19;99556.16;;;5.18;100.00
64192;BME280;50497;50.720;-2.084;2024-02-26T05:27:44;99562.13;;;5.24;100.00
64192;BME280;50497;50.720;-2.084;2024-02-26T05:30:11;99583.41;;;5.22;100.00
64192;BME280;50497;50.720;-2.084;2024-02-26T05:32:37;99592.31;;;5.19;100.00
64192;BME280;50497;50.720;-2.084;2024-02-26T05:35:02;99605.59;;;5.19;100.00
64192;BME280;50497;50.720;-2.084;2024-02-26T05:37:29;99619.72;;;5.20;100.00
64192;BME280;50497;50.720;-2.084;2024-02-26T05:39:54;99627.69;;;5.20;100.00
64192;BME280;50497;50.720;-2.084;2024-02-26T05:42:20;99635.03;;;5.13;100.00
64192;BME280;50497;50.720;-2.084;2024-02-26T05:44:45;99638.47;;;5.15;100.00
64192;BME280;50497;50.720;-2.084;2024-02-26T05:47:10;99651.69;;;5.17;100.00
64192;BME280;50497;50.720;-2.084;2024-02-26T05:49:36;99663.19;;;5.16;100.00
64192;BME280;50497;50.720;-2.084;2024-02-26T05:52:01;99665.00;;;5.15;100.00
64192;BME280;50497;50.720;-2.084;2024-02-26T05:54:27;99686.28;;;5.14;100.00
64192;BME280;50497;50.720;-2.084;2024-02-26T05:56:52;99697.94;;;5.10;100.00
64192;BME280;50497;50.720;-2.084;2024-02-26T05:59:18;99715.44;;;5.14;100.00
64192;BME280;50497;50.720;-2.084;2024-02-26T06:01:43;99745.72;;;5.08;100.00
64192;BME280;50497;50.720;-2.084;2024-02-26T06:04:09;99746.75;;;5.04;100.00
64192;BME280;50497;50.720;-2.084;2024-02-26T06:06:34;99762.50;;;5.09;100.00
64192;BME280;50497;50.720;-2.084;2024-02-26T06:09:00;99758.03;;;5.09;100.00
64192;BME280;50497;50.720;-2.084;2024-02-26T06:11:25;99786.34;;;5.09;100.00
64192;BME280;50497;50.720;-2.084;2024-02-26T06:13:50;99825.16;;;5.11;100.00
64192;BME280;50497;50.720;-2.084;2024-02-26T06:16:16;99817.19;;;5.11;100.00
64192;BME280;50497;50.720;-2.084;2024-02-26T06:18:41;99852.63;;;5.09;100.00
64192;BME280;50497;50.720;-2.084;2024-02-26T06:21:10;99859.13;;;5.02;100.00
64192;BME280;50497;50.720;-2.084;2024-02-26T06:23:36;99870.63;;;5.00;100.00
64192;BME280;50497;50.720;-2.084;2024-02-26T06:26:01;99895.44;;;4.98;100.00
64192;BME280;50497;50.720;-2.084;2024-02-26T06:28:26;99892.91;;;4.96;100.00
64192;BME280;50497;50.720;-2.084;2024-02-26T06:30:55;99914.91;;;4.98;100.00
64192;BME280;50497;50.720;-2.084;2024-02-26T06:33:21;99922.91;;;4.97;100.00
64192;BME280;50497;50.720;-2.084;2024-02-26T06:35:46;99939.66;;;4.97;100.00
64192;BME280;50497;50.720;-2.084;2024-02-26T06:38:12;99955.56;;;4.97;100.00
64192;BME280;50497;50.720;-2.084;2024-02-26T06:40:39;99967.13;;;4.96;100.00
64192;BME280;50497;50.720;-2.084;2024-02-26T06:43:04;99971.53;;;4.96;100.00
64192;BME280;50497;50.720;-2.084;2024-02-26T06:45:30;99976.94;;;4.93;100.00
64192;BME280;50497;50.720;-2.084;2024-02-26T06:47:55;100001.00;;;4.88;100.00
64192;BME280;50497;50.720;-2.084;2024-02-26T06:50:21;100010.53;;;4.92;100.00
64192;BME280;50497;50.720;-2.084;2024-02-26T06:52:47;100022.06;;;4.91;100.00
64192;BME280;50497;50.720;-2.084;2024-02-26T06:55:12;100041.91;;;4.79;100.00
64192;BME280;50497;50.720;-2.084;2024-02-26T06:57:38;100041.00;;;4.80;100.00
64192;BME280;50497;50.720;-2.084;2024-02-26T07:00:04;100059.44;;;4.84;100.00
64192;BME280;50497;50.720;-2.084;2024-02-26T07:02:30;100074.41;;;4.85;100.00
64192;BME280;50497;50.720;-2.084;2024-02-26T07:04:55;100077.81;;;4.90;100.00
64192;BME280;50497;50.720;-2.084;2024-02-26T07:07:23;100093.72;;;4.90;100.00
64192;BME280;50497;50.720;-2.084;2024-02-26T07:09:49;100111.47;;;4.86;100.00
64192;BME280;50497;50.720;-2.084;2024-02-26T07:12:15;100114.84;;;4.91;100.00
64192;BME280;50497;50.720;-2.084;2024-02-26T07:14:41;100130.59;;;4.96;100.00
64192;BME280;50497;50.720;-2.084;2024-02-26T07:17:07;100151.94;;;4.91;100.00
64192;BME280;50497;50.720;-2.084;2024-02-26T07:19:34;100174.28;;;4.84;100.00
64192;BME280;50497;50.720;-2.084;2024-02-26T07:21:59;100182.00;;;4.92;100.00
64192;BME280;50497;50.720;-2.084;2024-02-26T07:24:27;100173.44;;;4.84;100.00
64192;BME280;50497;50.720;-2.084;2024-02-26T07:26:53;100210.25;;;4.91;100.00
64192;BME280;50497;50.720;-2.084;2024-02-26T07:29:20;100219.88;;;4.95;100.00
64192;BME280;50497;50.720;-2.084;2024-02-26T07:31:46;100207.50;;;4.94;100.00
64192;BME280;50497;50.720;-2.084;2024-02-26T07:34:11;100234.66;;;5.03;100.00
64192;BME280;50497;50.720;-2.084;2024-02-26T07:36:37;100254.84;;;5.07;100.00
64192;BME280;50497;50.720;-2.084;2024-02-26T07:39:02;100258.50;;;5.03;100.00
64192;BME280;50497;50.720;-2.084;2024-02-26T07:41:28;100267.41;;;5.02;100.00
64192;BME280;50497;50.720;-2.084;2024-02-26T07:43:53;100282.19;;;5.09;100.00
64192;BME280;50497;50.720;-2.084;2024-02-26T07:46:19;100283.88;;;5.11;100.00
64192;BME280;50497;50.720;-2.084;2024-02-26T07:48:45;100298.75;;;5.15;100.00
64192;BME280;50497;50.720;-2.084;2024-02-26T07:51:12;100311.16;;;5.15;100.00
64192;BME280;50497;50.720;-2.084;2024-02-26T07:53:39;100335.75;;;5.20;100.00
64192;BME280;50497;50.720;-2.084;2024-02-26T07:56:04;100350.00;;;5.16;100.00
64192;BME280;50497;50.720;-2.084;2024-02-26T07:58:30;100336.69;;;5.17;100.00
64192;BME280;50497;50.720;-2.084;2024-02-26T08:00:57;100354.28;;;5.22;100.00
64192;BME280;50497;50.720;-2.084;2024-02-26T08:03:22;100372.88;;;5.20;100.00
64192;BME280;50497;50.720;-2.084;2024-02-26T08:05:49;100376.53;;;5.16;100.00
64192;BME280;50497;50.720;-2.084;2024-02-26T08:08:15;100372.97;;;5.17;100.00
64192;BME280;50497;50.720;-2.084;2024-02-26T08:10:41;100384.31;;;5.22;100.00
64192;BME280;50497;50.720;-2.084;2024-02-26T08:13:07;100384.34;;;5.21;100.00
64192;BME280;50497;50.720;-2.084;2024-02-26T08:15:36;100394.09;;;5.20;100.00
64192;BME280;50497;50.720;-2.084;2024-02-26T08:18:05;100391.16;;;5.29;100.00
64192;BME280;50497;50.720;-2.084;2024-02-26T08:20:31;100401.03;;;5.24;100.00
64192;BME280;50497;50.720;-2.084;2024-02-26T08:22:57;100404.31;;;5.32;100.00
64192;BME280;50497;50.720;-2.084;2024-02-26T08:25:23;100423.59;;;5.37;100.00
64192;BME280;50497;50.720;-2.084;2024-02-26T08:27:49;100416.38;;;5.43;100.00
64192;BME280;50497;50.720;-2.084;2024-02-26T08:30:15;100435.63;;;5.49;100.00
64192;BME280;50497;50.720;-2.084;2024-02-26T08:32:45;100444.84;;;5.66;100.00
64192;BME280;50497;50.720;-2.084;2024-02-26T08:35:11;100452.81;;;5.66;100.00
64192;BME280;50497;50.720;-2.084;2024-02-26T08:37:36;100451.94;;;5.65;100.00
64192;BME280;50497;50.720;-2.084;2024-02-26T08:40:02;100472.31;;;5.65;100.00
64192;BME280;50497;50.720;-2.084;2024-02-26T08:42:29;100466.75;;;5.72;100.00
64192;BME280;50497;50.720;-2.084;2024-02-26T08:44:54;100479.28;;;5.67;100.00
64192;BME280;50497;50.720;-2.084;2024-02-26T08:47:20;100487.97;;;5.72;100.00
64192;BME280;50497;50.720;-2.084;2024-02-26T08:49:45;100476.06;;;5.86;100.00
64192;BME280;50497;50.720;-2.084;2024-02-26T08:52:11;100484.78;;;5.91;100.00
64192;BME280;50497;50.720;-2.084;2024-02-26T08:54:36;100505.06;;;5.92;100.00
64192;BME280;50497;50.720;-2.084;2024-02-26T08:57:02;100496.16;;;5.96;100.00
64192;BME280;50497;50.720;-2.084;2024-02-26T08:59:28;100502.41;;;5.92;100.00
64192;BME280;50497;50.720;-2.084;2024-02-26T09:01:53;100496.97;;;5.98;100.00
64192;BME280;50497;50.720;-2.084;2024-02-26T09:04:19;100507.78;;;5.90;100.00
64192;BME280;50497;50.720;-2.084;2024-02-26T09:06:45;100502.88;;;6.06;100.00
64192;BME280;50497;50.720;-2.084;2024-02-26T09:09:10;100511.84;;;6.02;100.00
64192;BME280;50497;50.720;-2.084;2024-02-26T09:11:36;100525.34;;;5.96;100.00
64192;BME280;50497;50.720;-2.084;2024-02-26T09:14:01;100529.38;;;5.80;100.00
64192;BME280;50497;50.720;-2.084;2024-02-26T09:16:27;100522.09;;;5.86;100.00
64192;BME280;50497;50.720;-2.084;2024-02-26T09:18:52;100546.22;;;5.79;100.00
64192;BME280;50497;50.720;-2.084;2024-02-26T09:21:17;100528.44;;;5.81;100.00
64192;BME280;50497;50.720;-2.084;2024-02-26T09:23:49;100564.59;;;5.85;100.00
64192;BME280;50497;50.720;-2.084;2024-02-26T09:26:14;100574.25;;;5.87;100.00
64192;BME280;50497;50.720;-2.084;2024-02-26T09:28:40;100580.38;;;5.91;100.00
64192;BME280;50497;50.720;-2.084;2024-02-26T09:31:05;100589.91;;;5.98;100.00
64192;BME280;50497;50.720;-2.084;2024-02-26T09:33:32;100578.81;;;6.40;100.00
64192;BME280;50497;50.720;-2.084;2024-02-26T09:35:57;100587.19;;;6.81;100.00
64192;BME280;50497;50.720;-2.084;2024-02-26T09:38:23;100596.59;;;6.92;100.00
64192;BME280;50497;50.720;-2.084;2024-02-26T09:40:49;100592.56;;;7.30;100.00
64192;BME280;50497;50.720;-2.084;2024-02-26T09:43:17;100597.66;;;7.13;100.00
64192;BME280;50497;50.720;-2.084;2024-02-26T09:45:46;100610.47;;;7.50;100.00
64192;BME280;50497;50.720;-2.084;2024-02-26T09:48:12;100655.47;;;7.08;100.00
64192;BME280;50497;50.720;-2.084;2024-02-26T09:50:39;100660.19;;;7.25;100.00
64192;BME280;50497;50.720;-2.084;2024-02-26T09:53:06;100644.28;;;7.97;100.00
64192;BME280;50497;50.720;-2.084;2024-02-26T09:55:35;100664.69;;;7.96;100.00
64192;BME280;50497;50.720;-2.084;2024-02-26T09:58:01;100677.47;;;7.87;100.00
64192;BME280;50497;50.720;-2.084;2024-02-26T10:00:31;100707.84;;;7.83;100.00
64192;BME280;50497;50.720;-2.084;2024-02-26T10:03:03;100741.66;;;7.29;100.00
64192;BME280;50497;50.720;-2.084;2024-02-26T10:05:29;100738.78;;;7.35;100.00
64192;BME280;50497;50.720;-2.084;2024-02-26T10:07:57;100763.19;;;7.22;100.00
64192;BME280;50497;50.720;-2.084;2024-02-26T10:10:23;100775.53;;;7.77;100.00
64192;BME280;50497;50.720;-2.084;2024-02-26T10:12:49;100775.66;;;7.20;100.00
64192;BME280;50497;50.720;-2.084;2024-02-26T10:15:15;100775.44;;;7.53;100.00
64192;BME280;50497;50.720;-2.084;2024-02-26T10:17:41;100785.22;;;7.53;100.00
64192;BME280;50497;50.720;-2.084;2024-02-26T10:20:17;100801.72;;;7.64;100.00
64192;BME280;50497;50.720;-2.084;2024-02-26T10:22:46;100795.38;;;7.67;100.00
64192;BME280;50497;50.720;-2.084;2024-02-26T10:25:12;100824.97;;;7.32;100.00
64192;BME280;50497;50.720;-2.084;2024-02-26T10:27:40;100836.50;;;7.03;100.00
64192;BME280;50497;50.720;-2.084;2024-02-26T10:30:16;100831.59;;;6.91;100.00
64192;BME280;50497;50.720;-2.084;2024-02-26T10:32:46;100865.06;;;6.98;100.00
64192;BME280;50497;50.720;-2.084;2024-02-26T10:35:13;100849.81;;;7.31;100.00
64192;BME280;50497;50.720;-2.084;2024-02-26T10:37:40;100853.69;;;7.49;100.00
64192;BME280;50497;50.720;-2.084;2024-02-26T10:40:08;100859.34;;;7.65;100.00
64192;BME280;50497;50.720;-2.084;2024-02-26T10:42:34;100861.78;;;7.98;100.00
64192;BME280;50497;50.720;-2.084;2024-02-26T10:45:00;100872.56;;;8.47;100.00
64192;BME280;50497;50.720;-2.084;2024-02-26T10:47:28;100899.00;;;8.26;100.00
64192;BME280;50497;50.720;-2.084;2024-02-26T10:49:54;100934.28;;;7.81;100.00
64192;BME280;50497;50.720;-2.084;2024-02-26T10:52:19;100956.13;;;7.92;100.00
64192;BME280;50497;50.720;-2.084;2024-02-26T10:54:47;100955.41;;;8.14;100.00
64192;BME280;50497;50.720;-2.084;2024-02-26T10:57:15;100978.44;;;8.94;100.00
64192;BME280;50497;50.720;-2.084;2024-02-26T10:59:44;100998.28;;;8.86;100.00
64192;BME280;50497;50.720;-2.084;2024-02-26T11:02:10;101022.97;;;9.17;100.00
64192;BME280;50497;50.720;-2.084;2024-02-26T11:04:37;101066.97;;;8.53;100.00
64192;BME280;50497;50.720;-2.084;2024-02-26T11:07:04;101067.69;;;8.85;100.00
64192;BME280;50497;50.720;-2.084;2024-02-26T11:09:30;101090.88;;;8.28;100.00
64192;BME280;50497;50.720;-2.084;2024-02-26T11:11:57;101151.16;;;7.74;100.00
64192;BME280;50497;50.720;-2.084;2024-02-26T11:14:23;101136.28;;;7.96;100.00
64192;BME280;50497;50.720;-2.084;2024-02-26T11:16:51;101156.44;;;8.35;100.00
64192;BME280;50497;50.720;-2.084;2024-02-26T11:19:18;101119.56;;;10.23;100.00
64192;BME280;50497;50.720;-2.084;2024-02-26T11:21:43;101162.13;;;9.31;100.00
64192;BME280;50497;50.720;-2.084;2024-02-26T11:24:12;101176.81;;;9.93;100.00
64192;BME280;50497;50.720;-2.084;2024-02-26T11:26:57;101203.31;;;9.51;100.00
64192;BME280;50497;50.720;-2.084;2024-02-26T11:29:25;101207.97;;;9.69;100.00
64192;BME280;50497;50.720;-2.084;2024-02-26T11:31:52;101207.38;;;9.61;100.00
64192;BME280;50497;50.720;-2.084;2024-02-26T11:34:18;101230.91;;;10.24;100.00
64192;BME280;50497;50.720;-2.084;2024-02-26T11:36:44;101253.16;;;9.25;100.00
64192;BME280;50497;50.720;-2.084;2024-02-26T11:39:11;101252.16;;;9.79;100.00
64192;BME280;50497;50.720;-2.084;2024-02-26T11:41:38;101263.59;;;9.04;100.00
64192;BME280;50497;50.720;-2.084;2024-02-26T11:44:04;101259.19;;;8.77;100.00
64192;BME280;50497;50.720;-2.084;2024-02-26T11:46:42;101236.72;;;9.11;100.00
64192;BME280;50497;50.720;-2.084;2024-02-26T11:51:53;101229.88;;;10.28;100.00
64192;BME280;50497;50.720;-2.084;2024-02-26T11:54:58;101261.06;;;9.80;100.00
64192;BME280;50497;50.720;-2.084;2024-02-26T11:57:27;101257.19;;;10.12;100.00
64192;BME280;50497;50.720;-2.084;2024-02-26T11:59:55;101228.19;;;11.15;100.00
64192;BME280;50497;50.720;-2.084;2024-02-26T12:05:19;101274.34;;;10.78;100.00
64192;BME280;50497;50.720;-2.084;2024-02-26T12:07:47;101287.88;;;10.51;100.00
64192;BME280;50497;50.720;-2.084;2024-02-26T12:10:36;101315.19;;;10.10;100.00
64192;BME280;50497;50.720;-2.084;2024-02-26T12:15:41;101304.00;;;10.95;100.00
64192;BME280;50497;50.720;-2.084;2024-02-26T12:18:08;101335.72;;;10.82;100.00
64192;BME280;50497;50.720;-2.084;2024-02-26T12:20:38;101327.91;;;11.44;100.00
64192;BME280;50497;50.720;-2.084;2024-02-26T12:23:04;101340.06;;;11.08;100.00
64192;BME280;50497;50.720;-2.084;2024-02-26T12:25:30;101356.22;;;11.05;100.00
64192;BME280;50497;50.720;-2.084;2024-02-26T12:27:57;101391.16;;;10.30;100.00
64192;BME280;50497;50.720;-2.084;2024-02-26T12:30:23;101343.16;;;11.42;100.00
64192;BME280;50497;50.720;-2.084;2024-02-26T12:32:50;101337.75;;;12.07;100.00
64192;BME280;50497;50.720;-2.084;2024-02-26T12:35:16;101363.31;;;10.61;100.00
64192;BME280;50497;50.720;-2.084;2024-02-26T12:37:43;101379.22;;;10.15;100.00
64192;BME280;50497;50.720;-2.084;2024-02-26T12:40:10;101394.78;;;9.77;100.00
64192;BME280;50497;50.720;-2.084;2024-02-26T12:42:36;101377.63;;;10.83;100.00
64192;BME280;50497;50.720;-2.084;2024-02-26T12:45:06;101353.72;;;11.02;100.00
64192;BME280;50497;50.720;-2.084;2024-02-26T12:47:36;101344.13;;;11.41;100.00
64192;BME280;50497;50.720;-2.084;2024-02-26T12:50:03;101365.16;;;11.06;100.00